Time;durP1;ratioP1;P1;durP2;ratioP2;P2;SDS_P1;SDS_P2;PMS_P1;PMS_P2;Temp;Humidity;BMP_temperature;BMP_pressure;BME280_temperature;BME280_humidity;BME280_pressure;Samples;Min_cycle;Max_cycle;Signal;HPM_P1;HPM_P2
2022/01/14 00:01:25;;;;;;;;;51.50;39.75;;;;;;;;5073394;28;46169;-71
2022/01/14 00:03:50;;;;;;;;;52.00;43.25;;;;;;;;5075902;27;45361;-72
2022/01/14 00:06:15;;;;;;;;;47.50;38.00;;;;;;;;5055991;28;45536;-72
2022/01/14 00:08:40;;;;;;;;;46.00;36.50;;;;;;;;5072520;27;45279;-72
2022/01/14 00:11:14;;;;;;;;;55.50;41.75;;;;;;;;5072815;28;45594;-72
2022/01/14 00:16:08;;;;;;;;;46.00;40.00;;;;;;;;5075517;27;45408;-72
2022/01/14 00:18:33;;;;;;;;;48.00;39.25;;;;;;;;5074408;28;45487;-72
2022/01/14 00:21:00;;;;;;;;;41.75;37.50;;;;;;;;5073625;28;46119;-72
2022/01/14 00:23:30;;;;;;;;;48.50;40.00;;;;;;;;5074025;28;45426;-72
2022/01/14 00:31:43;;;;;;;;;44.25;39.00;;;;;;;;5073871;28;45493;-72
2022/01/14 00:34:09;;;;;;;;;47.75;37.50;;;;;;;;5071760;27;45380;-70
2022/01/14 00:36:35;;;;;;;;;39.50;36.00;;;;;;;;5072742;27;45445;-71
2022/01/14 00:39:00;;;;;;;;;49.75;38.75;;;;;;;;5073719;28;45588;-71
2022/01/14 00:41:25;;;;;;;;;51.00;39.25;;;;;;;;5073372;28;46493;-72
2022/01/14 00:43:57;;;;;;;;;45.25;38.50;;;;;;;;5073326;28;45462;-71
2022/01/14 00:46:22;;;;;;;;;41.75;36.00;;;;;;;;5074281;28;45621;-70
2022/01/14 00:48:47;;;;;;;;;53.75;42.25;;;;;;;;5073335;27;45407;-71
2022/01/14 00:51:12;;;;;;;;;54.25;42.25;;;;;;;;5071700;28;45735;-71
2022/01/14 00:53:37;;;;;;;;;45.25;39.75;;;;;;;;5073096;28;45542;-71
2022/01/14 00:56:19;;;;;;;;;53.25;42.75;;;;;;;;5073463;28;45380;-72
2022/01/14 01:01:28;;;;;;;;;53.75;43.00;;;;;;;;5073373;28;45321;-71
2022/01/14 01:03:53;;;;;;;;;44.50;39.00;;;;;;;;5074871;28;45277;-71
2022/01/14 01:06:19;;;;;;;;;39.75;36.25;;;;;;;;5073080;27;45455;-71
2022/01/14 01:08:46;;;;;;;;;50.00;41.75;;;;;;;;5073279;28;45406;-72
2022/01/14 01:11:11;;;;;;;;;47.75;39.25;;;;;;;;5074652;28;49383;-72
2022/01/14 01:13:42;;;;;;;;;41.00;36.75;;;;;;;;5076975;27;45522;-72
2022/01/14 01:16:07;;;;;;;;;52.50;41.25;;;;;;;;5075092;28;45396;-72
2022/01/14 01:18:32;;;;;;;;;44.50;35.75;;;;;;;;5077419;28;45418;-72
2022/01/14 01:20:59;;;;;;;;;49.25;41.75;;;;;;;;5076746;28;45518;-72
2022/01/14 01:23:24;;;;;;;;;74.00;56.33;;;;;;;;5076792;27;45492;-72
2022/01/14 01:25:57;;;;;;;;;42.50;39.00;;;;;;;;5075320;28;45647;-72
2022/01/14 01:28:22;;;;;;;;;59.75;45.75;;;;;;;;5076870;28;45546;-73
2022/01/14 01:30:51;;;;;;;;;61.50;45.00;;;;;;;;5076522;28;46188;-72
2022/01/14 01:33:16;;;;;;;;;53.00;43.75;;;;;;;;5076674;27;45506;-72
2022/01/14 01:35:42;;;;;;;;;55.75;42.25;;;;;;;;5076818;27;45599;-71
2022/01/14 01:38:08;;;;;;;;;52.50;43.50;;;;;;;;5076872;27;45578;-71
2022/01/14 01:40:34;;;;;;;;;52.50;43.75;;;;;;;;5076717;28;45258;-71
2022/01/14 01:43:03;;;;;;;;;50.25;43.00;;;;;;;;5077926;28;45532;-71
2022/01/14 01:45:28;;;;;;;;;47.50;41.25;;;;;;;;5076456;27;45471;-71
2022/01/14 01:47:54;;;;;;;;;52.50;42.50;;;;;;;;5076374;27;45545;-71
2022/01/14 01:50:21;;;;;;;;;46.50;39.00;;;;;;;;5076070;27;46236;-73
2022/01/14 01:52:46;;;;;;;;;49.50;42.25;;;;;;;;5076208;27;45418;-72
2022/01/14 01:55:12;;;;;;;;;46.75;41.50;;;;;;;;5077718;27;45434;-72
2022/01/14 01:57:38;;;;;;;;;52.25;42.50;;;;;;;;5076797;28;45355;-72
2022/01/14 02:00:06;;;;;;;;;55.75;41.00;;;;;;;;5076046;27;46241;-71
2022/01/14 02:02:33;;;;;;;;;45.50;39.50;;;;;;;;5076129;27;45481;-71
2022/01/14 02:04:59;;;;;;;;;54.00;42.00;;;;;;;;5074502;28;45499;-72
2022/01/14 02:07:24;;;;;;;;;46.75;40.00;;;;;;;;5076307;27;45451;-71
2022/01/14 02:09:49;;;;;;;;;53.75;42.00;;;;;;;;5075813;27;45958;-70
2022/01/14 02:12:14;;;;;;;;;53.00;41.25;;;;;;;;5075971;27;45337;-71
2022/01/14 02:14:54;;;;;;;;;46.25;39.00;;;;;;;;5076180;27;45436;-71
2022/01/14 02:22:45;;;;;;;;;54.00;42.25;;;;;;;;5057804;28;45397;-72
2022/01/14 02:25:11;;;;;;;;;55.50;43.00;;;;;;;;5077207;28;45431;-72
2022/01/14 02:27:37;;;;;;;;;51.75;41.00;;;;;;;;5076413;27;45524;-72
2022/01/14 02:30:05;;;;;;;;;48.75;39.75;;;;;;;;5075568;27;46075;-73
2022/01/14 02:32:30;;;;;;;;;51.25;39.25;;;;;;;;5075697;28;45381;-72
2022/01/14 02:34:55;;;;;;;;;43.50;38.50;;;;;;;;5075824;28;47371;-72
2022/01/14 02:37:20;;;;;;;;;54.00;42.25;;;;;;;;5075774;28;45304;-71
2022/01/14 02:39:46;;;;;;;;;46.50;38.25;;;;;;;;5076842;27;47121;-72
2022/01/14 02:42:12;;;;;;;;;49.25;38.50;;;;;;;;5075419;28;45323;-72
2022/01/14 02:44:37;;;;;;;;;52.75;42.75;;;;;;;;5073779;27;45470;-73
2022/01/14 02:47:05;;;;;;;;;37.00;32.25;;;;;;;;5074304;28;45357;-72
2022/01/14 02:49:33;;;;;;;;;44.50;39.50;;;;;;;;5075404;28;46298;-71
2022/01/14 02:52:01;;;;;;;;;51.25;40.25;;;;;;;;5077463;28;45526;-71
2022/01/14 02:54:31;;;;;;;;;50.00;39.00;;;;;;;;5075495;27;45269;-71
2022/01/14 02:56:57;;;;;;;;;43.50;38.50;;;;;;;;5075404;28;45514;-72
2022/01/14 02:59:23;;;;;;;;;46.25;39.25;;;;;;;;5075170;27;45460;-71
2022/01/14 03:01:49;;;;;;;;;39.50;36.00;;;;;;;;5075589;28;45457;-71
2022/01/14 03:04:15;;;;;;;;;43.25;38.50;;;;;;;;5076506;28;45497;-71
2022/01/14 03:06:40;;;;;;;;;54.25;43.25;;;;;;;;5076434;27;45440;-71
2022/01/14 03:09:06;;;;;;;;;52.50;40.25;;;;;;;;5074280;28;46037;-72
2022/01/14 03:11:34;;;;;;;;;42.00;38.75;;;;;;;;5074799;27;45424;-71
2022/01/14 03:14:00;;;;;;;;;48.00;36.00;;;;;;;;5075117;28;45389;-71
2022/01/14 03:16:25;;;;;;;;;50.25;39.75;;;;;;;;5075083;27;45350;-71
2022/01/14 03:18:53;;;;;;;;;47.50;39.75;;;;;;;;5076603;28;46153;-71
2022/01/14 03:21:27;;;;;;;;;46.50;39.00;;;;;;;;5057668;27;45259;-72
2022/01/14 03:24:03;;;;;;;;;52.50;40.50;;;;;;;;5072701;28;45497;-71
2022/01/14 03:26:29;;;;;;;;;42.25;38.50;;;;;;;;5073338;27;46325;-71
2022/01/14 03:28:54;;;;;;;;;43.00;38.75;;;;;;;;5074473;28;46012;-71
2022/01/14 03:31:19;;;;;;;;;48.25;39.00;;;;;;;;5075238;27;45737;-72
2022/01/14 03:33:44;;;;;;;;;50.00;36.50;;;;;;;;5076050;27;45197;-72
2022/01/14 03:36:10;;;;;;;;;44.75;40.50;;;;;;;;5074665;28;45342;-72
2022/01/14 03:38:35;;;;;;;;;40.25;38.00;;;;;;;;5074423;28;46282;-72
2022/01/14 03:41:01;;;;;;;;;47.25;39.50;;;;;;;;5074456;28;45418;-72
2022/01/14 03:43:27;;;;;;;;;46.50;39.25;;;;;;;;5074633;27;45336;-72
2022/01/14 03:45:52;;;;;;;;;48.25;40.50;;;;;;;;5076217;28;45467;-71
2022/01/14 03:48:18;;;;;;;;;54.25;42.50;;;;;;;;5074313;27;46309;-71
2022/01/14 03:50:43;;;;;;;;;60.75;47.25;;;;;;;;5073900;28;45479;-71
2022/01/14 03:53:11;;;;;;;;;51.75;42.50;;;;;;;;5073965;27;45417;-71
2022/01/14 03:55:37;;;;;;;;;52.50;44.25;;;;;;;;5058090;28;45379;-71
2022/01/14 03:58:02;;;;;;;;;55.75;43.75;;;;;;;;5071335;27;45315;-71
2022/01/14 04:00:30;;;;;;;;;52.75;43.75;;;;;;;;5074110;28;45430;-71
2022/01/14 04:02:55;;;;;;;;;48.25;40.75;;;;;;;;5072853;27;45383;-71
2022/01/14 04:05:21;;;;;;;;;56.50;44.00;;;;;;;;5072884;27;45426;-71
2022/01/14 04:07:46;;;;;;;;;55.25;44.50;;;;;;;;5056700;28;46055;-72
2022/01/14 04:10:12;;;;;;;;;54.75;43.50;;;;;;;;5057560;28;45413;-71
2022/01/14 04:12:54;;;;;;;;;55.25;43.50;;;;;;;;5075188;28;45347;-72
2022/01/14 04:15:38;;;;;;;;;56.00;46.50;;;;;;;;5074138;27;45387;-71
2022/01/14 04:18:05;;;;;;;;;56.00;46.25;;;;;;;;5073951;27;46104;-71
2022/01/14 04:20:30;;;;;;;;;54.75;44.50;;;;;;;;5073670;28;45401;-72
2022/01/14 04:22:56;;;;;;;;;61.00;46.00;;;;;;;;5074064;27;47455;-72
2022/01/14 04:25:21;;;;;;;;;54.75;40.25;;;;;;;;5074019;28;45429;-72
2022/01/14 04:27:46;;;;;;;;;53.75;40.75;;;;;;;;5075480;28;45577;-71
2022/01/14 04:30:12;;;;;;;;;53.25;43.50;;;;;;;;5073607;28;45367;-71
2022/01/14 04:32:37;;;;;;;;;51.50;42.00;;;;;;;;5073888;27;45387;-70
2022/01/14 04:35:03;;;;;;;;;58.75;47.75;;;;;;;;5073654;28;45474;-71
2022/01/14 04:37:28;;;;;;;;;58.25;46.25;;;;;;;;5073337;27;45961;-72
2022/01/14 04:39:53;;;;;;;;;59.75;47.00;;;;;;;;5075374;28;45392;-72
2022/01/14 04:42:18;;;;;;;;;54.75;42.25;;;;;;;;5071731;28;45402;-71
2022/01/14 04:44:44;;;;;;;;;55.75;43.00;;;;;;;;5071886;27;45348;-72
2022/01/14 04:47:16;;;;;;;;;57.25;44.00;;;;;;;;5072170;27;45478;-72
2022/01/14 04:49:41;;;;;;;;;58.50;45.00;;;;;;;;5073021;28;45372;-72
2022/01/14 04:52:07;;;;;;;;;63.50;48.25;;;;;;;;5075201;28;45599;-72
2022/01/14 04:54:32;;;;;;;;;51.50;42.00;;;;;;;;5073256;28;45494;-72
2022/01/14 04:56:58;;;;;;;;;62.75;47.00;;;;;;;;5072758;28;46200;-72
2022/01/14 04:59:23;;;;;;;;;52.75;43.00;;;;;;;;5073163;28;45508;-73
2022/01/14 05:01:49;;;;;;;;;56.75;46.75;;;;;;;;5056292;28;45366;-73
2022/01/14 05:04:14;;;;;;;;;55.75;43.25;;;;;;;;5073887;28;45526;-72
2022/01/14 05:06:42;;;;;;;;;60.25;47.00;;;;;;;;5073582;28;46073;-72
2022/01/14 05:09:18;;;;;;;;;58.00;44.25;;;;;;;;5072983;27;45549;-72
2022/01/14 05:11:51;;;;;;;;;52.25;42.00;;;;;;;;5072699;27;45280;-72
2022/01/14 05:14:17;;;;;;;;;57.75;45.25;;;;;;;;5054041;28;45488;-72
2022/01/14 05:16:42;;;;;;;;;58.50;43.75;;;;;;;;5072170;28;45466;-71
2022/01/14 05:19:07;;;;;;;;;54.50;41.75;;;;;;;;5072773;28;45348;-71
2022/01/14 05:21:32;;;;;;;;;58.75;46.75;;;;;;;;5071121;27;45603;-71
2022/01/14 05:23:57;;;;;;;;;55.75;44.75;;;;;;;;5071132;27;45454;-71
2022/01/14 05:26:23;;;;;;;;;56.25;44.00;;;;;;;;5072496;28;47272;-72
2022/01/14 05:28:48;;;;;;;;;57.00;42.00;;;;;;;;5072394;28;45555;-72
2022/01/14 05:31:13;;;;;;;;;52.50;39.25;;;;;;;;5073077;28;45384;-72
2022/01/14 05:33:41;;;;;;;;;58.50;46.50;;;;;;;;5072440;28;45416;-71
2022/01/14 05:36:06;;;;;;;;;31.50;26.75;;;;;;;;5071919;28;47227;-71
2022/01/14 05:38:31;;;;;;;;;62.67;50.00;;;;;;;;5072592;27;45430;-72
2022/01/14 05:40:57;;;;;;;;;63.50;46.50;;;;;;;;5072462;27;45452;-71
2022/01/14 05:43:22;;;;;;;;;57.75;46.25;;;;;;;;5072658;28;45424;-71
2022/01/14 05:45:47;;;;;;;;;47.50;39.00;;;;;;;;5073552;28;46551;-72
2022/01/14 05:48:12;;;;;;;;;57.00;44.75;;;;;;;;5070535;28;45474;-74
2022/01/14 05:50:37;;;;;;;;;52.50;44.00;;;;;;;;5072106;27;45272;-73
2022/01/14 05:53:03;;;;;;;;;59.75;48.50;;;;;;;;5071954;28;45512;-73
2022/01/14 05:55:28;;;;;;;;;57.00;46.25;;;;;;;;5071938;27;45374;-72
2022/01/14 05:57:53;;;;;;;;;62.00;44.50;;;;;;;;5075158;28;45323;-72
2022/01/14 06:00:20;;;;;;;;;60.25;47.25;;;;;;;;5073618;27;45489;-72
2022/01/14 06:02:46;;;;;;;;;54.75;41.00;;;;;;;;5072997;27;45502;-72
2022/01/14 06:05:11;;;;;;;;;53.25;43.75;;;;;;;;5074837;28;45417;-73
2022/01/14 06:07:36;;;;;;;;;55.75;45.25;;;;;;;;5075049;27;45302;-72
2022/01/14 06:10:02;;;;;;;;;63.25;49.00;;;;;;;;5076748;27;45375;-72
2022/01/14 06:12:28;;;;;;;;;52.00;43.50;;;;;;;;5074649;28;45355;-72
2022/01/14 06:14:53;;;;;;;;;57.50;44.25;;;;;;;;5074470;27;47262;-70
2022/01/14 06:17:18;;;;;;;;;57.00;45.75;;;;;;;;5056835;28;45218;-73
2022/01/14 06:19:43;;;;;;;;;47.50;40.25;;;;;;;;5074850;28;45312;-72
2022/01/14 06:22:09;;;;;;;;;54.75;43.75;;;;;;;;5076405;27;45285;-73
2022/01/14 06:24:34;;;;;;;;;58.25;44.00;;;;;;;;5056504;28;47947;-73
2022/01/14 06:27:01;;;;;;;;;60.75;46.00;;;;;;;;5074860;28;47780;-72
2022/01/14 06:29:26;;;;;;;;;60.00;49.33;;;;;;;;5074345;27;45573;-72
2022/01/14 06:31:51;;;;;;;;;60.00;48.25;;;;;;;;5074071;27;45851;-72
2022/01/14 06:34:16;;;;;;;;;61.00;46.25;;;;;;;;5074561;28;46031;-73
2022/01/14 06:36:42;;;;;;;;;57.33;46.33;;;;;;;;5075185;28;45387;-71
2022/01/14 06:39:08;;;;;;;;;58.25;46.00;;;;;;;;5071923;27;45817;-73
2022/01/14 06:41:33;;;;;;;;;66.00;53.33;;;;;;;;5073867;27;45517;-71
2022/01/14 06:43:58;;;;;;;;;56.00;44.00;;;;;;;;5073178;27;46254;-73
2022/01/14 06:46:23;;;;;;;;;56.50;44.25;;;;;;;;5074208;28;45919;-71
2022/01/14 06:48:49;;;;;;;;;60.25;45.50;;;;;;;;5076043;27;45534;-71
2022/01/14 06:51:15;;;;;;;;;64.00;51.00;;;;;;;;5073253;27;45514;-71
2022/01/14 06:53:41;;;;;;;;;60.67;49.00;;;;;;;;5073159;27;46190;-71
2022/01/14 06:56:07;;;;;;;;;58.00;49.00;;;;;;;;5073862;27;45531;-71
2022/01/14 06:58:32;;;;;;;;;57.00;46.75;;;;;;;;5074288;28;45303;-73
2022/01/14 07:00:57;;;;;;;;;61.00;48.00;;;;;;;;5075480;27;45522;-72
2022/01/14 07:03:23;;;;;;;;;53.75;41.75;;;;;;;;5073201;28;45568;-72
2022/01/14 07:05:48;;;;;;;;;63.50;48.50;;;;;;;;5073637;27;45418;-72
2022/01/14 07:08:13;;;;;;;;;61.00;50.00;;;;;;;;5073273;27;45491;-72
2022/01/14 07:10:39;;;;;;;;;57.25;46.25;;;;;;;;5073004;27;45422;-72
2022/01/14 07:13:05;;;;;;;;;64.25;48.75;;;;;;;;5075214;27;47411;-71
2022/01/14 07:15:31;;;;;;;;;54.00;44.75;;;;;;;;5072779;27;45412;-73
2022/01/14 07:17:56;;;;;;;;;58.00;46.25;;;;;;;;5070307;27;47046;-72
2022/01/14 07:20:25;;;;;;;;;56.00;43.25;;;;;;;;5071335;27;45518;-72
2022/01/14 07:22:50;;;;;;;;;62.33;49.33;;;;;;;;5072318;27;45809;-72
2022/01/14 07:25:16;;;;;;;;;61.33;49.67;;;;;;;;5073839;28;45347;-72
2022/01/14 07:27:41;;;;;;;;;61.25;47.25;;;;;;;;5073758;28;45709;-72
2022/01/14 07:30:07;;;;;;;;;51.25;43.50;;;;;;;;5055659;28;45478;-72
2022/01/14 07:32:33;;;;;;;;;58.25;43.75;;;;;;;;5072602;28;46049;-72
2022/01/14 07:34:58;;;;;;;;;50.00;43.25;;;;;;;;5072637;27;45328;-72
2022/01/14 07:37:23;;;;;;;;;53.25;43.75;;;;;;;;5073244;27;45672;-71
2022/01/14 07:39:49;;;;;;;;;48.00;39.75;;;;;;;;5075126;27;45201;-73
2022/01/14 07:42:14;;;;;;;;;59.50;48.75;;;;;;;;5072311;28;46457;-72
2022/01/14 07:44:39;;;;;;;;;57.25;46.75;;;;;;;;5072173;28;45436;-73
2022/01/14 07:47:05;;;;;;;;;50.50;42.00;;;;;;;;5071544;27;45766;-73
2022/01/14 07:49:31;;;;;;;;;62.25;50.50;;;;;;;;5071611;28;45572;-69
2022/01/14 07:51:56;;;;;;;;;56.75;46.25;;;;;;;;5064269;27;46578;-68
2022/01/14 07:54:21;;;;;;;;;59.50;49.00;;;;;;;;5072290;27;45245;-68
2022/01/14 07:56:47;;;;;;;;;61.00;47.50;;;;;;;;5048115;28;45413;-68
2022/01/14 07:59:17;;;;;;;;;63.25;46.00;;;;;;;;5061233;28;45458;-68
2022/01/14 08:01:46;;;;;;;;;56.00;44.50;;;;;;;;5056150;28;45422;-68
2022/01/14 08:04:13;;;;;;;;;63.00;50.33;;;;;;;;5069725;27;45351;-68
2022/01/14 08:06:45;;;;;;;;;51.50;42.50;;;;;;;;5070499;28;45407;-68
2022/01/14 08:09:10;;;;;;;;;65.00;50.25;;;;;;;;5068349;28;45597;-69
2022/01/14 08:11:35;;;;;;;;;61.75;44.75;;;;;;;;5069760;27;46197;-68
2022/01/14 08:14:00;;;;;;;;;60.00;46.75;;;;;;;;5069364;28;45253;-69
2022/01/14 08:16:25;;;;;;;;;56.50;45.00;;;;;;;;5068708;28;45568;-69
2022/01/14 08:18:51;;;;;;;;;63.33;50.33;;;;;;;;5072246;28;45458;-69
2022/01/14 08:21:17;;;;;;;;;62.50;46.00;;;;;;;;5049353;28;46940;-69
2022/01/14 08:23:42;;;;;;;;;59.50;44.75;;;;;;;;5067778;28;45517;-69
2022/01/14 08:26:08;;;;;;;;;58.75;45.75;;;;;;;;5056807;28;45472;-69
2022/01/14 08:28:33;;;;;;;;;58.75;47.25;;;;;;;;5071688;27;45548;-69
2022/01/14 08:30:58;;;;;;;;;63.25;50.00;;;;;;;;5058100;28;46101;-69
2022/01/14 08:33:23;;;;;;;;;68.00;54.00;;;;;;;;5060740;28;45598;-68
2022/01/14 08:35:48;;;;;;;;;63.75;48.75;;;;;;;;5060658;28;45358;-68
2022/01/14 08:38:14;;;;;;;;;65.75;52.00;;;;;;;;5057506;28;45428;-69
2022/01/14 08:40:40;;;;;;;;;56.00;45.50;;;;;;;;5071781;28;46252;-69
2022/01/14 08:43:05;;;;;;;;;51.25;43.25;;;;;;;;5057649;28;45331;-68
2022/01/14 08:45:30;;;;;;;;;62.00;50.25;;;;;;;;5062038;28;45317;-69
2022/01/14 08:47:56;;;;;;;;;69.25;52.00;;;;;;;;5061503;27;45465;-69
2022/01/14 08:50:22;;;;;;;;;55.75;46.50;;;;;;;;5064424;27;46219;-69
2022/01/14 08:52:48;;;;;;;;;59.00;48.00;;;;;;;;5071221;28;45539;-69
2022/01/14 08:55:15;;;;;;;;;59.50;46.00;;;;;;;;5070943;28;45356;-70
2022/01/14 08:57:41;;;;;;;;;61.25;48.75;;;;;;;;5067495;27;45602;-72
2022/01/14 09:00:06;;;;;;;;;60.50;47.75;;;;;;;;5064943;27;47055;-70
2022/01/14 09:02:33;;;;;;;;;61.75;50.25;;;;;;;;5061156;28;45292;-70
2022/01/14 09:04:59;;;;;;;;;68.50;51.00;;;;;;;;5059626;28;45380;-69
2022/01/14 09:07:24;;;;;;;;;65.75;51.25;;;;;;;;5056546;28;45368;-70
2022/01/14 09:09:51;;;;;;;;;61.25;49.75;;;;;;;;5059591;27;46343;-69
2022/01/14 09:12:17;;;;;;;;;65.75;51.25;;;;;;;;5067559;27;45501;-69
2022/01/14 09:14:42;;;;;;;;;62.75;51.25;;;;;;;;5069458;27;46677;-70
2022/01/14 09:17:07;;;;;;;;;71.00;54.67;;;;;;;;5069914;27;45490;-68
2022/01/14 09:19:32;;;;;;;;;65.25;49.50;;;;;;;;5071863;27;45535;-68
2022/01/14 09:21:57;;;;;;;;;66.75;52.50;;;;;;;;5073254;28;45375;-68
2022/01/14 09:24:23;;;;;;;;;65.25;51.00;;;;;;;;5070530;28;45539;-68
2022/01/14 09:26:48;;;;;;;;;63.50;50.50;;;;;;;;5070231;28;47801;-68
2022/01/14 09:29:13;;;;;;;;;64.50;51.50;;;;;;;;5071311;27;46177;-68
2022/01/14 09:31:38;;;;;;;;;61.75;48.50;;;;;;;;5071413;28;45585;-68
2022/01/14 09:34:04;;;;;;;;;62.50;47.75;;;;;;;;5077069;27;45250;-69
2022/01/14 09:36:29;;;;;;;;;58.75;48.75;;;;;;;;5074902;27;45179;-68
2022/01/14 09:38:54;;;;;;;;;65.25;51.75;;;;;;;;5074035;27;46214;-68
2022/01/14 09:41:20;;;;;;;;;65.75;51.00;;;;;;;;5074055;27;45540;-69
2022/01/14 09:43:45;;;;;;;;;66.25;51.00;;;;;;;;5074789;27;45350;-69
2022/01/14 09:46:11;;;;;;;;;69.75;53.75;;;;;;;;5075830;27;45380;-68
2022/01/14 09:48:37;;;;;;;;;63.50;48.00;;;;;;;;5074679;27;46628;-68
2022/01/14 09:51:02;;;;;;;;;58.00;46.75;;;;;;;;5074474;28;45299;-67
2022/01/14 09:53:28;;;;;;;;;63.25;49.75;;;;;;;;5073221;27;45383;-67
2022/01/14 09:55:54;;;;;;;;;65.00;51.50;;;;;;;;5072513;27;45451;-68
2022/01/14 09:58:22;;;;;;;;;58.75;48.00;;;;;;;;5074953;27;46190;-69
2022/01/14 10:00:47;;;;;;;;;62.25;48.25;;;;;;;;5073980;27;45400;-69
2022/01/14 10:03:23;;;;;;;;;67.00;52.00;;;;;;;;5074174;28;45502;-68
2022/01/14 10:05:52;;;;;;;;;55.00;42.25;;;;;;;;5073205;27;45490;-69
2022/01/14 10:08:25;;;;;;;;;63.25;49.00;;;;;;;;5072669;27;47279;-69
2022/01/14 10:10:54;;;;;;;;;58.75;48.00;;;;;;;;5073372;27;45447;-71
2022/01/14 10:13:22;;;;;;;;;61.00;49.50;;;;;;;;5073392;27;45385;-71
2022/01/14 10:15:59;;;;;;;;;59.50;47.00;;;;;;;;5070268;28;45902;-71
2022/01/14 10:18:25;;;;;;;;;60.75;47.00;;;;;;;;5072281;27;46237;-71
2022/01/14 10:20:51;;;;;;;;;62.75;50.00;;;;;;;;5072275;27;45424;-70
2022/01/14 10:23:16;;;;;;;;;64.00;48.50;;;;;;;;5071869;27;45499;-70
2022/01/14 10:25:54;;;;;;;;;64.00;50.00;;;;;;;;5067281;27;45415;-73
2022/01/14 10:28:20;;;;;;;;;58.25;47.25;;;;;;;;5073851;27;46235;-72
2022/01/14 10:30:46;;;;;;;;;55.75;44.50;;;;;;;;5075475;27;45507;-71
2022/01/14 10:33:12;;;;;;;;;59.75;48.50;;;;;;;;5072128;27;45472;-70
2022/01/14 10:35:39;;;;;;;;;56.00;46.25;;;;;;;;5071618;27;45260;-69
2022/01/14 10:38:05;;;;;;;;;61.50;46.75;;;;;;;;5073623;27;46188;-73
2022/01/14 10:40:32;;;;;;;;;54.00;42.75;;;;;;;;5073275;27;45275;-67
2022/01/14 10:43:16;;;;;;;;;64.75;45.50;;;;;;;;5074773;27;45415;-71
2022/01/14 10:45:43;;;;;;;;;56.25;44.50;;;;;;;;5073833;28;45488;-69
2022/01/14 10:48:19;;;;;;;;;56.75;46.25;;;;;;;;5072515;27;45593;-69
2022/01/14 10:50:46;;;;;;;;;60.00;47.50;;;;;;;;5072976;28;45428;-70
2022/01/14 10:53:11;;;;;;;;;64.00;51.25;;;;;;;;5073913;27;45424;-69
2022/01/14 10:55:38;;;;;;;;;54.50;44.25;;;;;;;;5074341;27;45540;-72
2022/01/14 10:58:08;;;;;;;;;67.25;51.75;;;;;;;;5071468;27;47671;-71
2022/01/14 11:00:43;;;;;;;;;57.25;44.50;;;;;;;;5073123;27;45539;-70
2022/01/14 11:03:09;;;;;;;;;59.25;46.75;;;;;;;;5073311;27;45332;-71
2022/01/14 11:05:35;;;;;;;;;62.25;49.00;;;;;;;;5073862;28;45346;-70
2022/01/14 11:08:01;;;;;;;;;65.25;49.50;;;;;;;;5072867;27;46622;-70
2022/01/14 11:10:28;;;;;;;;;67.75;54.75;;;;;;;;5073451;27;45410;-69
2022/01/14 11:12:54;;;;;;;;;62.50;50.00;;;;;;;;5073699;27;45410;-69
2022/01/14 11:15:20;;;;;;;;;57.75;46.75;;;;;;;;5071176;27;45422;-70
2022/01/14 11:17:50;;;;;;;;;58.50;47.00;;;;;;;;5072609;27;45656;-71
2022/01/14 11:20:21;;;;;;;;;61.25;47.50;;;;;;;;5072276;27;45460;-70
2022/01/14 11:25:30;;;;;;;;;69.25;50.25;;;;;;;;5073644;27;45652;-69
2022/01/14 11:27:57;;;;;;;;;59.75;47.25;;;;;;;;5075052;27;45599;-69
2022/01/14 11:30:33;;;;;;;;;56.50;44.25;;;;;;;;5072650;27;45495;-68
2022/01/14 11:33:01;;;;;;;;;57.00;46.75;;;;;;;;5072988;27;45428;-70
2022/01/14 11:35:27;;;;;;;;;62.50;49.75;;;;;;;;5072705;27;45359;-70
2022/01/14 11:37:52;;;;;;;;;63.00;51.25;;;;;;;;5072459;27;47065;-70
2022/01/14 11:40:18;;;;;;;;;58.25;46.50;;;;;;;;5073044;27;45339;-70
2022/01/14 11:42:47;;;;;;;;;52.25;44.50;;;;;;;;5072981;28;45403;-69
2022/01/14 11:45:16;;;;;;;;;64.25;50.00;;;;;;;;5071572;28;45399;-70
2022/01/14 11:47:44;;;;;;;;;57.50;45.25;;;;;;;;5071685;27;46218;-68
2022/01/14 11:50:18;;;;;;;;;48.00;38.00;;;;;;;;5069681;27;45429;-69
2022/01/14 11:52:44;;;;;;;;;50.50;41.00;;;;;;;;5055293;28;45565;-69
2022/01/14 11:55:22;;;;;;;;;52.75;42.25;;;;;;;;5073755;27;45501;-68
2022/01/14 11:57:51;;;;;;;;;48.75;38.25;;;;;;;;5074400;27;46512;-68
2022/01/14 12:00:25;;;;;;;;;47.50;38.50;;;;;;;;5071513;27;45324;-68
2022/01/14 12:02:51;;;;;;;;;66.00;51.25;;;;;;;;5072227;28;45465;-68
2022/01/14 12:05:18;;;;;;;;;50.25;40.75;;;;;;;;5071798;28;45340;-70
2022/01/14 12:08:07;;;;;;;;;52.75;42.00;;;;;;;;5072171;27;46279;-68
2022/01/14 12:10:32;;;;;;;;;48.00;40.25;;;;;;;;5072744;27;45437;-69
2022/01/14 12:13:16;;;;;;;;;55.25;44.25;;;;;;;;5069856;28;46409;-69
2022/01/14 12:15:55;;;;;;;;;58.25;47.50;;;;;;;;5071350;28;45256;-70
2022/01/14 12:19:00;;;;;;;;;62.75;48.75;;;;;;;;5071934;27;46973;-69
2022/01/14 12:21:40;;;;;;;;;54.00;42.75;;;;;;;;4987838;28;45537;-69
2022/01/14 12:24:27;;;;;;;;;60.25;48.25;;;;;;;;4988558;28;45273;-70
2022/01/14 12:26:52;;;;;;;;;61.00;48.50;;;;;;;;4989533;28;45520;-69
2022/01/14 12:29:18;;;;;;;;;57.50;46.50;;;;;;;;4989751;28;45398;-70
2022/01/14 12:32:02;;;;;;;;;53.25;43.75;;;;;;;;4990020;28;45565;-69
2022/01/14 12:34:28;;;;;;;;;52.00;42.25;;;;;;;;4988591;28;45423;-69
2022/01/14 12:36:54;;;;;;;;;49.00;41.75;;;;;;;;4991180;28;45429;-68
2022/01/14 12:39:19;;;;;;;;;48.75;39.00;;;;;;;;4989368;28;46912;-68
2022/01/14 12:41:44;;;;;;;;;52.00;43.00;;;;;;;;4988731;28;46410;-68
2022/01/14 12:44:10;;;;;;;;;52.00;43.00;;;;;;;;4987830;28;45483;-69
2022/01/14 12:46:52;;;;;;;;;52.00;40.00;;;;;;;;4988843;28;45461;-69
2022/01/14 12:49:22;;;;;;;;;52.50;41.50;;;;;;;;4987097;28;46159;-68
2022/01/14 12:51:58;;;;;;;;;51.50;41.50;;;;;;;;5011602;28;45390;-69
2022/01/14 12:54:28;;;;;;;;;50.00;41.25;;;;;;;;5070317;27;45333;-68
2022/01/14 12:56:54;;;;;;;;;52.00;43.50;;;;;;;;5054578;28;45457;-68
2022/01/14 12:59:19;;;;;;;;;54.50;44.25;;;;;;;;5071412;28;46422;-68
2022/01/14 13:01:49;;;;;;;;;57.25;44.25;;;;;;;;5071319;28;45454;-68
2022/01/14 13:04:15;;;;;;;;;54.00;42.75;;;;;;;;5072305;27;45592;-69
2022/01/14 13:06:42;;;;;;;;;69.25;56.00;;;;;;;;5070622;28;45266;-69
2022/01/14 13:09:07;;;;;;;;;65.00;50.75;;;;;;;;5068261;27;45542;-70
2022/01/14 13:11:49;;;;;;;;;59.75;46.25;;;;;;;;5068353;28;45465;-68
2022/01/14 13:14:18;;;;;;;;;58.50;46.50;;;;;;;;5068763;28;45339;-68
2022/01/14 13:16:48;;;;;;;;;47.50;40.25;;;;;;;;5071054;28;45406;-69
2022/01/14 13:19:21;;;;;;;;;55.50;44.75;;;;;;;;5070662;27;46965;-68
2022/01/14 13:21:46;;;;;;;;;48.75;41.25;;;;;;;;5072330;27;45446;-68
2022/01/14 13:24:22;;;;;;;;;50.50;42.50;;;;;;;;5070903;28;45516;-69
2022/01/14 13:27:01;;;;;;;;;53.75;41.50;;;;;;;;5070215;27;45487;-67
2022/01/14 13:29:26;;;;;;;;;52.25;42.50;;;;;;;;5070807;27;46233;-68
2022/01/14 13:31:51;;;;;;;;;51.25;43.00;;;;;;;;5070558;28;45324;-67
2022/01/14 13:34:17;;;;;;;;;55.25;44.00;;;;;;;;5070625;28;45688;-67
2022/01/14 13:36:42;;;;;;;;;54.25;44.00;;;;;;;;5070328;28;45475;-67
2022/01/14 13:39:08;;;;;;;;;50.00;38.50;;;;;;;;5069906;27;46005;-67
2022/01/14 13:41:34;;;;;;;;;41.50;38.00;;;;;;;;5069760;27;45493;-68
2022/01/14 13:44:13;;;;;;;;;51.75;41.50;;;;;;;;5069924;28;45494;-68
2022/01/14 13:46:50;;;;;;;;;44.00;37.25;;;;;;;;5068969;28;45886;-68
2022/01/14 13:49:20;;;;;;;;;44.25;35.25;;;;;;;;5068311;28;47261;-68
2022/01/14 13:51:47;;;;;;;;;48.75;41.50;;;;;;;;5062147;28;45388;-67
2022/01/14 13:54:15;;;;;;;;;53.25;42.75;;;;;;;;5065469;27;45419;-67
2022/01/14 13:56:41;;;;;;;;;53.25;43.75;;;;;;;;5066141;28;45350;-68
2022/01/14 13:59:06;;;;;;;;;44.50;38.25;;;;;;;;5065388;28;46617;-68
2022/01/14 14:01:31;;;;;;;;;51.00;41.00;;;;;;;;5071404;27;45377;-68
2022/01/14 14:04:02;;;;;;;;;53.25;42.25;;;;;;;;5058376;28;45314;-68
2022/01/14 14:06:33;;;;;;;;;41.00;35.25;;;;;;;;5060113;28;45444;-69
2022/01/14 14:16:42;;;;;;;;;45.75;36.25;;;;;;;;5055684;28;45438;-68
2022/01/14 14:19:07;;;;;;;;;44.00;36.00;;;;;;;;5069108;28;45369;-67
2022/01/14 14:21:34;;;;;;;;;44.75;36.75;;;;;;;;5070286;27;45427;-67
2022/01/14 14:23:59;;;;;;;;;40.75;36.25;;;;;;;;5050044;28;45477;-67
2022/01/14 14:26:34;;;;;;;;;42.00;35.25;;;;;;;;5072487;27;45469;-67
2022/01/14 14:29:20;;;;;;;;;43.75;35.75;;;;;;;;5072601;27;46080;-66
2022/01/14 14:31:45;;;;;;;;;39.25;31.25;;;;;;;;5059503;28;45442;-66
2022/01/14 14:34:10;;;;;;;;;39.25;34.00;;;;;;;;5075536;27;45369;-67
2022/01/14 14:36:37;;;;;;;;;44.75;36.75;;;;;;;;5055307;27;45638;-67
2022/01/14 14:39:03;;;;;;;;;44.75;38.50;;;;;;;;5074055;28;46291;-67
2022/01/14 14:41:28;;;;;;;;;40.50;34.50;;;;;;;;5073685;27;45477;-66
2022/01/14 14:43:53;;;;;;;;;41.25;35.75;;;;;;;;5073490;27;45355;-65